sensor_id;sensor_type;location;lat;lon;timestamp;temperature;humidity
18147;DHT22;9199;48.832;9.182;2022-08-19T00:00:09;21.80;99.90
18147;DHT22;9199;48.832;9.182;2022-08-19T00:02:36;21.80;99.90
18147;DHT22;9199;48.832;9.182;2022-08-19T00:05:04;21.80;99.90
18147;DHT22;9199;48.832;9.182;2022-08-19T00:07:31;21.80;99.90
18147;DHT22;9199;48.832;9.182;2022-08-19T00:09:59;21.70;99.90
18147;DHT22;9199;48.832;9.182;2022-08-19T00:12:26;21.70;99.90
18147;DHT22;9199;48.832;9.182;2022-08-19T00:14:53;21.60;99.90
18147;DHT22;9199;48.832;9.182;2022-08-19T00:17:20;21.70;99.90
18147;DHT22;9199;48.832;9.182;2022-08-19T00:19:47;21.60;99.90
18147;DHT22;9199;48.832;9.182;2022-08-19T00:22:14;21.60;99.90
18147;DHT22;9199;48.832;9.182;2022-08-19T00:24:43;21.70;99.90
18147;DHT22;9199;48.832;9.182;2022-08-19T00:27:12;21.60;99.90
18147;DHT22;9199;48.832;9.182;2022-08-19T00:29:39;21.60;99.90
18147;DHT22;9199;48.832;9.182;2022-08-19T00:32:06;21.60;99.90
18147;DHT22;9199;48.832;9.182;2022-08-19T00:34:33;21.60;99.90
18147;DHT22;9199;48.832;9.182;2022-08-19T00:36:59;21.70;99.90
18147;DHT22;9199;48.832;9.182;2022-08-19T00:39:26;21.70;99.90
18147;DHT22;9199;48.832;9.182;2022-08-19T00:41:53;21.60;99.90
18147;DHT22;9199;48.832;9.182;2022-08-19T00:44:23;21.60;99.90
18147;DHT22;9199;48.832;9.182;2022-08-19T00:46:52;21.60;99.90
18147;DHT22;9199;48.832;9.182;2022-08-19T00:49:22;21.60;99.90
18147;DHT22;9199;48.832;9.182;2022-08-19T00:51:54;21.50;99.90
18147;DHT22;9199;48.832;9.182;2022-08-19T00:54:22;21.50;99.90
18147;DHT22;9199;48.832;9.182;2022-08-19T00:56:50;21.60;99.90
18147;DHT22;9199;48.832;9.182;2022-08-19T00:59:18;21.60;99.90
18147;DHT22;9199;48.832;9.182;2022-08-19T01:01:47;21.50;99.90
18147;DHT22;9199;48.832;9.182;2022-08-19T01:04:13;21.50;99.90
18147;DHT22;9199;48.832;9.182;2022-08-19T01:06:40;21.60;99.90
18147;DHT22;9199;48.832;9.182;2022-08-19T01:09:08;21.60;99.90
18147;DHT22;9199;48.832;9.182;2022-08-19T01:11:37;21.60;99.90
18147;DHT22;9199;48.832;9.182;2022-08-19T01:14:06;21.50;99.90
18147;DHT22;9199;48.832;9.182;2022-08-19T01:16:34;21.50;99.90
18147;DHT22;9199;48.832;9.182;2022-08-19T01:19:09;21.60;99.90
18147;DHT22;9199;48.832;9.182;2022-08-19T01:21:42;21.60;99.90
18147;DHT22;9199;48.832;9.182;2022-08-19T01:24:11;21.60;99.90
18147;DHT22;9199;48.832;9.182;2022-08-19T01:26:40;21.60;99.90
18147;DHT22;9199;48.832;9.182;2022-08-19T01:29:08;21.50;99.90
18147;DHT22;9199;48.832;9.182;2022-08-19T01:31:35;21.50;99.90
18147;DHT22;9199;48.832;9.182;2022-08-19T01:34:03;21.50;99.90
18147;DHT22;9199;48.832;9.182;2022-08-19T01:36:34;21.40;99.90
18147;DHT22;9199;48.832;9.182;2022-08-19T01:39:05;21.30;99.90
18147;DHT22;9199;48.832;9.182;2022-08-19T01:41:34;21.40;99.90
18147;DHT22;9199;48.832;9.182;2022-08-19T01:44:02;21.40;99.90
18147;DHT22;9199;48.832;9.182;2022-08-19T01:46:30;21.40;99.90
18147;DHT22;9199;48.832;9.182;2022-08-19T01:48:57;21.30;99.90
18147;DHT22;9199;48.832;9.182;2022-08-19T01:51:24;21.40;99.90
18147;DHT22;9199;48.832;9.182;2022-08-19T01:53:52;21.30;99.90
18147;DHT22;9199;48.832;9.182;2022-08-19T01:56:19;21.30;99.90
18147;DHT22;9199;48.832;9.182;2022-08-19T01:58:52;21.30;99.90
18147;DHT22;9199;48.832;9.182;2022-08-19T02:01:20;21.30;99.90
18147;DHT22;9199;48.832;9.182;2022-08-19T02:03:47;21.30;99.90
18147;DHT22;9199;48.832;9.182;2022-08-19T02:06:14;21.20;99.90
18147;DHT22;9199;48.832;9.182;2022-08-19T02:08:43;21.30;99.90
18147;DHT22;9199;48.832;9.182;2022-08-19T02:11:19;21.30;99.90
18147;DHT22;9199;48.832;9.182;2022-08-19T02:13:48;21.30;99.90
18147;DHT22;9199;48.832;9.182;2022-08-19T02:16:16;21.30;99.90
18147;DHT22;9199;48.832;9.182;2022-08-19T02:18:43;21.30;99.90
18147;DHT22;9199;48.832;9.182;2022-08-19T02:21:10;21.20;99.90
18147;DHT22;9199;48.832;9.182;2022-08-19T02:23:38;21.20;99.90
18147;DHT22;9199;48.832;9.182;2022-08-19T02:26:05;21.20;99.90
18147;DHT22;9199;48.832;9.182;2022-08-19T02:28:32;21.10;99.90
18147;DHT22;9199;48.832;9.182;2022-08-19T02:31:00;21.10;99.90
18147;DHT22;9199;48.832;9.182;2022-08-19T02:33:28;21.00;99.90
18147;DHT22;9199;48.832;9.182;2022-08-19T02:35:55;21.00;99.90
18147;DHT22;9199;48.832;9.182;2022-08-19T02:38:21;21.00;99.90
18147;DHT22;9199;48.832;9.182;2022-08-19T02:40:57;21.00;99.90
18147;DHT22;9199;48.832;9.182;2022-08-19T02:43:24;21.00;99.90
18147;DHT22;9199;48.832;9.182;2022-08-19T02:45:51;21.00;99.90
18147;DHT22;9199;48.832;9.182;2022-08-19T02:48:21;20.90;99.90
18147;DHT22;9199;48.832;9.182;2022-08-19T02:50:50;20.90;99.90
18147;DHT22;9199;48.832;9.182;2022-08-19T02:53:22;20.90;99.90
18147;DHT22;9199;48.832;9.182;2022-08-19T02:55:49;20.90;99.90
18147;DHT22;9199;48.832;9.182;2022-08-19T02:58:17;20.80;99.90
18147;DHT22;9199;48.832;9.182;2022-08-19T03:00:46;20.80;99.90
18147;DHT22;9199;48.832;9.182;2022-08-19T03:03:13;20.70;99.90
18147;DHT22;9199;48.832;9.182;2022-08-19T03:05:42;20.80;99.90
18147;DHT22;9199;48.832;9.182;2022-08-19T03:08:11;20.70;99.90
18147;DHT22;9199;48.832;9.182;2022-08-19T03:10:44;20.70;99.90
18147;DHT22;9199;48.832;9.182;2022-08-19T03:13:12;20.70;99.90
18147;DHT22;9199;48.832;9.182;2022-08-19T03:15:41;20.60;99.90
18147;DHT22;9199;48.832;9.182;2022-08-19T03:18:08;20.60;99.90
18147;DHT22;9199;48.832;9.182;2022-08-19T03:20:41;20.70;99.90
18147;DHT22;9199;48.832;9.182;2022-08-19T03:23:08;20.60;99.90
18147;DHT22;9199;48.832;9.182;2022-08-19T03:25:37;20.60;99.90
18147;DHT22;9199;48.832;9.182;2022-08-19T03:28:06;20.50;99.90
18147;DHT22;9199;48.832;9.182;2022-08-19T03:30:33;20.50;99.90
18147;DHT22;9199;48.832;9.182;2022-08-19T03:33:00;20.50;99.90
18147;DHT22;9199;48.832;9.182;2022-08-19T03:35:27;20.50;99.90
18147;DHT22;9199;48.832;9.182;2022-08-19T03:37:55;20.50;99.90
18147;DHT22;9199;48.832;9.182;2022-08-19T03:40:22;20.50;99.90
18147;DHT22;9199;48.832;9.182;2022-08-19T03:42:49;20.40;99.90
18147;DHT22;9199;48.832;9.182;2022-08-19T03:45:16;20.50;99.90
18147;DHT22;9199;48.832;9.182;2022-08-19T03:47:43;20.40;99.90
18147;DHT22;9199;48.832;9.182;2022-08-19T03:50:10;20.50;99.90
18147;DHT22;9199;48.832;9.182;2022-08-19T03:52:37;20.60;99.90
18147;DHT22;9199;48.832;9.182;2022-08-19T03:55:06;20.50;99.90
18147;DHT22;9199;48.832;9.182;2022-08-19T03:57:34;20.50;99.90
18147;DHT22;9199;48.832;9.182;2022-08-19T04:00:01;20.40;99.90
18147;DHT22;9199;48.832;9.182;2022-08-19T04:02:29;20.30;99.90
18147;DHT22;9199;48.832;9.182;2022-08-19T04:04:56;20.30;99.90
18147;DHT22;9199;48.832;9.182;2022-08-19T04:07:23;20.40;99.90
18147;DHT22;9199;48.832;9.182;2022-08-19T04:09:50;20.30;99.90
18147;DHT22;9199;48.832;9.182;2022-08-19T04:12:19;20.40;99.90
18147;DHT22;9199;48.832;9.182;2022-08-19T04:14:47;20.40;99.90
18147;DHT22;9199;48.832;9.182;2022-08-19T04:17:13;20.30;99.90
18147;DHT22;9199;48.832;9.182;2022-08-19T04:19:40;20.40;99.90
18147;DHT22;9199;48.832;9.182;2022-08-19T04:22:08;20.50;99.90
18147;DHT22;9199;48.832;9.182;2022-08-19T04:24:36;20.50;99.90
18147;DHT22;9199;48.832;9.182;2022-08-19T04:27:04;20.60;99.90
18147;DHT22;9199;48.832;9.182;2022-08-19T04:29:33;20.60;99.90
18147;DHT22;9199;48.832;9.182;2022-08-19T04:32:01;20.60;99.90
18147;DHT22;9199;48.832;9.182;2022-08-19T04:34:29;20.70;99.90
18147;DHT22;9199;48.832;9.182;2022-08-19T04:36:57;20.70;99.90
18147;DHT22;9199;48.832;9.182;2022-08-19T04:39:28;20.70;99.90
18147;DHT22;9199;48.832;9.182;2022-08-19T04:42:09;20.70;99.90
18147;DHT22;9199;48.832;9.182;2022-08-19T04:44:54;20.60;99.90
18147;DHT22;9199;48.832;9.182;2022-08-19T04:47:21;20.70;99.90
18147;DHT22;9199;48.832;9.182;2022-08-19T04:49:48;20.70;99.90
18147;DHT22;9199;48.832;9.182;2022-08-19T04:52:14;20.60;99.90
18147;DHT22;9199;48.832;9.182;2022-08-19T04:54:41;20.70;99.90
18147;DHT22;9199;48.832;9.182;2022-08-19T04:57:08;20.70;99.90
18147;DHT22;9199;48.832;9.182;2022-08-19T04:59:36;20.70;99.90
18147;DHT22;9199;48.832;9.182;2022-08-19T05:02:06;20.60;99.90
18147;DHT22;9199;48.832;9.182;2022-08-19T05:04:33;20.60;99.90
18147;DHT22;9199;48.832;9.182;2022-08-19T05:07:01;20.60;99.90
18147;DHT22;9199;48.832;9.182;2022-08-19T05:09:28;20.60;99.90
18147;DHT22;9199;48.832;9.182;2022-08-19T05:11:55;20.60;99.90
18147;DHT22;9199;48.832;9.182;2022-08-19T05:14:22;20.70;99.90
18147;DHT22;9199;48.832;9.182;2022-08-19T05:16:49;20.70;99.90
18147;DHT22;9199;48.832;9.182;2022-08-19T05:19:17;20.70;99.90
18147;DHT22;9199;48.832;9.182;2022-08-19T05:22:01;20.60;99.90
18147;DHT22;9199;48.832;9.182;2022-08-19T05:24:46;20.70;99.90
18147;DHT22;9199;48.832;9.182;2022-08-19T05:27:13;20.70;99.90
18147;DHT22;9199;48.832;9.182;2022-08-19T05:29:40;20.70;99.90
18147;DHT22;9199;48.832;9.182;2022-08-19T05:32:07;20.70;99.90
18147;DHT22;9199;48.832;9.182;2022-08-19T05:34:37;20.80;99.90
18147;DHT22;9199;48.832;9.182;2022-08-19T05:37:05;20.70;99.90
18147;DHT22;9199;48.832;9.182;2022-08-19T05:39:34;20.70;99.90
18147;DHT22;9199;48.832;9.182;2022-08-19T05:42:04;20.80;99.90
18147;DHT22;9199;48.832;9.182;2022-08-19T05:44:34;20.90;99.90
18147;DHT22;9199;48.832;9.182;2022-08-19T05:47:03;20.80;99.90
18147;DHT22;9199;48.832;9.182;2022-08-19T05:49:31;20.80;99.90
18147;DHT22;9199;48.832;9.182;2022-08-19T05:52:01;20.80;99.90
18147;DHT22;9199;48.832;9.182;2022-08-19T05:54:29;20.70;99.90
18147;DHT22;9199;48.832;9.182;2022-08-19T05:56:56;20.60;99.90
18147;DHT22;9199;48.832;9.182;2022-08-19T05:59:24;20.70;99.90
18147;DHT22;9199;48.832;9.182;2022-08-19T06:01:52;20.70;99.90
18147;DHT22;9199;48.832;9.182;2022-08-19T06:04:20;20.70;99.90
18147;DHT22;9199;48.832;9.182;2022-08-19T06:06:48;20.70;99.90
18147;DHT22;9199;48.832;9.182;2022-08-19T06:09:17;20.60;99.90
18147;DHT22;9199;48.832;9.182;2022-08-19T06:11:46;20.70;99.90
18147;DHT22;9199;48.832;9.182;2022-08-19T06:14:16;20.80;99.90
18147;DHT22;9199;48.832;9.182;2022-08-19T06:16:44;20.70;99.90
18147;DHT22;9199;48.832;9.182;2022-08-19T06:19:13;20.70;99.90
18147;DHT22;9199;48.832;9.182;2022-08-19T06:21:43;20.80;99.90
18147;DHT22;9199;48.832;9.182;2022-08-19T06:24:12;20.80;99.90
18147;DHT22;9199;48.832;9.182;2022-08-19T06:26:42;20.80;99.90
18147;DHT22;9199;48.832;9.182;2022-08-19T06:29:11;20.80;99.90
18147;DHT22;9199;48.832;9.182;2022-08-19T06:31:42;20.90;99.90
18147;DHT22;9199;48.832;9.182;2022-08-19T06:34:09;20.90;99.90
18147;DHT22;9199;48.832;9.182;2022-08-19T06:36:39;20.90;99.90
18147;DHT22;9199;48.832;9.182;2022-08-19T06:39:09;20.80;99.90
18147;DHT22;9199;48.832;9.182;2022-08-19T06:41:41;20.80;99.90
18147;DHT22;9199;48.832;9.182;2022-08-19T06:44:08;20.70;99.90
18147;DHT22;9199;48.832;9.182;2022-08-19T06:46:35;20.60;99.90
18147;DHT22;9199;48.832;9.182;2022-08-19T06:49:03;20.50;99.90
18147;DHT22;9199;48.832;9.182;2022-08-19T06:51:30;20.50;99.90
18147;DHT22;9199;48.832;9.182;2022-08-19T06:53:58;20.40;99.90
18147;DHT22;9199;48.832;9.182;2022-08-19T06:56:27;20.30;99.90
18147;DHT22;9199;48.832;9.182;2022-08-19T06:59:00;20.20;99.90
18147;DHT22;9199;48.832;9.182;2022-08-19T07:01:28;20.10;99.90
18147;DHT22;9199;48.832;9.182;2022-08-19T07:03:55;20.00;99.90
18147;DHT22;9199;48.832;9.182;2022-08-19T07:06:22;20.10;99.90
18147;DHT22;9199;48.832;9.182;2022-08-19T07:08:49;20.30;99.90
18147;DHT22;9199;48.832;9.182;2022-08-19T07:11:18;20.30;99.90
18147;DHT22;9199;48.832;9.182;2022-08-19T07:13:46;20.40;99.90
18147;DHT22;9199;48.832;9.182;2022-08-19T07:16:18;20.50;99.90
18147;DHT22;9199;48.832;9.182;2022-08-19T07:18:45;20.60;99.90
18147;DHT22;9199;48.832;9.182;2022-08-19T07:21:14;20.80;99.90
18147;DHT22;9199;48.832;9.182;2022-08-19T07:23:42;20.90;99.90
18147;DHT22;9199;48.832;9.182;2022-08-19T07:26:11;20.90;99.90
18147;DHT22;9199;48.832;9.182;2022-08-19T07:28:38;20.90;99.90
18147;DHT22;9199;48.832;9.182;2022-08-19T07:31:05;20.80;99.90
18147;DHT22;9199;48.832;9.182;2022-08-19T07:33:34;20.80;99.90
18147;DHT22;9199;48.832;9.182;2022-08-19T07:36:03;20.80;99.90
18147;DHT22;9199;48.832;9.182;2022-08-19T07:38:30;20.90;99.90
18147;DHT22;9199;48.832;9.182;2022-08-19T07:40:57;20.80;99.90
18147;DHT22;9199;48.832;9.182;2022-08-19T07:43:24;20.80;99.90
18147;DHT22;9199;48.832;9.182;2022-08-19T07:45:52;20.70;99.90
18147;DHT22;9199;48.832;9.182;2022-08-19T07:48:21;20.60;99.90
18147;DHT22;9199;48.832;9.182;2022-08-19T07:50:51;20.60;99.90
18147;DHT22;9199;48.832;9.182;2022-08-19T07:53:20;20.60;99.90
18147;DHT22;9199;48.832;9.182;2022-08-19T07:55:47;20.70;99.90
18147;DHT22;9199;48.832;9.182;2022-08-19T07:58:15;20.70;99.90
18147;DHT22;9199;48.832;9.182;2022-08-19T08:00:45;20.80;99.90
18147;DHT22;9199;48.832;9.182;2022-08-19T08:03:14;20.70;99.90
18147;DHT22;9199;48.832;9.182;2022-08-19T08:05:41;20.70;99.90
18147;DHT22;9199;48.832;9.182;2022-08-19T08:08:27;20.70;99.90
18147;DHT22;9199;48.832;9.182;2022-08-19T08:11:12;20.70;99.90
18147;DHT22;9199;48.832;9.182;2022-08-19T08:13:40;20.80;99.90
18147;DHT22;9199;48.832;9.182;2022-08-19T08:16:07;20.80;99.90
18147;DHT22;9199;48.832;9.182;2022-08-19T08:18:34;20.80;99.90
18147;DHT22;9199;48.832;9.182;2022-08-19T08:21:06;20.70;99.90
18147;DHT22;9199;48.832;9.182;2022-08-19T08:23:35;20.70;99.90
18147;DHT22;9199;48.832;9.182;2022-08-19T08:26:01;20.70;99.90
18147;DHT22;9199;48.832;9.182;2022-08-19T08:28:30;20.70;99.90
18147;DHT22;9199;48.832;9.182;2022-08-19T08:30:58;20.80;99.90
18147;DHT22;9199;48.832;9.182;2022-08-19T08:33:27;20.80;99.90
18147;DHT22;9199;48.832;9.182;2022-08-19T08:35:55;20.80;99.90
18147;DHT22;9199;48.832;9.182;2022-08-19T08:38:22;20.70;99.90
18147;DHT22;9199;48.832;9.182;2022-08-19T08:40:52;20.30;99.90
18147;DHT22;9199;48.832;9.182;2022-08-19T08:43:27;20.00;99.90
18147;DHT22;9199;48.832;9.182;2022-08-19T08:46:00;19.80;99.90
18147;DHT22;9199;48.832;9.182;2022-08-19T08:48:37;19.70;99.90
18147;DHT22;9199;48.832;9.182;2022-08-19T08:51:10;19.50;99.90
18147;DHT22;9199;48.832;9.182;2022-08-19T08:53:39;19.60;99.90
18147;DHT22;9199;48.832;9.182;2022-08-19T08:56:09;19.50;99.90
18147;DHT22;9199;48.832;9.182;2022-08-19T08:58:46;19.60;99.90
18147;DHT22;9199;48.832;9.182;2022-08-19T09:01:14;19.80;99.90
18147;DHT22;9199;48.832;9.182;2022-08-19T09:03:42;19.90;99.90
18147;DHT22;9199;48.832;9.182;2022-08-19T09:06:14;20.10;99.90
18147;DHT22;9199;48.832;9.182;2022-08-19T09:08:48;20.20;99.90
18147;DHT22;9199;48.832;9.182;2022-08-19T09:11:25;20.20;99.90
18147;DHT22;9199;48.832;9.182;2022-08-19T09:14:08;20.30;99.90
18147;DHT22;9199;48.832;9.182;2022-08-19T09:16:39;20.50;99.90
18147;DHT22;9199;48.832;9.182;2022-08-19T09:19:08;20.50;99.90
18147;DHT22;9199;48.832;9.182;2022-08-19T09:21:36;20.70;99.90
18147;DHT22;9199;48.832;9.182;2022-08-19T09:24:04;20.80;99.90
18147;DHT22;9199;48.832;9.182;2022-08-19T09:26:33;20.90;99.90
18147;DHT22;9199;48.832;9.182;2022-08-19T09:29:00;21.10;99.90
18147;DHT22;9199;48.832;9.182;2022-08-19T09:31:30;21.10;99.90
18147;DHT22;9199;48.832;9.182;2022-08-19T09:33:58;21.30;99.90
18147;DHT22;9199;48.832;9.182;2022-08-19T09:36:27;21.30;99.90
18147;DHT22;9199;48.832;9.182;2022-08-19T09:38:58;21.40;99.90
18147;DHT22;9199;48.832;9.182;2022-08-19T09:41:25;21.60;99.90
18147;DHT22;9199;48.832;9.182;2022-08-19T09:43:55;21.70;99.90
18147;DHT22;9199;48.832;9.182;2022-08-19T09:46:24;21.80;99.90
18147;DHT22;9199;48.832;9.182;2022-08-19T09:48:52;21.90;99.90
18147;DHT22;9199;48.832;9.182;2022-08-19T09:51:21;21.90;99.90
18147;DHT22;9199;48.832;9.182;2022-08-19T09:53:50;22.00;99.90
18147;DHT22;9199;48.832;9.182;2022-08-19T09:56:20;22.00;99.90
18147;DHT22;9199;48.832;9.182;2022-08-19T09:58:47;22.00;99.90
18147;DHT22;9199;48.832;9.182;2022-08-19T10:01:20;22.10;99.90
18147;DHT22;9199;48.832;9.182;2022-08-19T10:03:51;22.10;99.90
18147;DHT22;9199;48.832;9.182;2022-08-19T10:06:19;22.00;99.90
18147;DHT22;9199;48.832;9.182;2022-08-19T10:08:46;22.00;99.90
18147;DHT22;9199;48.832;9.182;2022-08-19T10:11:13;22.00;99.90
18147;DHT22;9199;48.832;9.182;2022-08-19T10:13:44;22.00;99.90
18147;DHT22;9199;48.832;9.182;2022-08-19T10:16:12;22.10;99.90
18147;DHT22;9199;48.832;9.182;2022-08-19T10:18:41;22.20;99.90
18147;DHT22;9199;48.832;9.182;2022-08-19T10:21:11;22.30;99.90
18147;DHT22;9199;48.832;9.182;2022-08-19T10:23:42;22.40;99.90
18147;DHT22;9199;48.832;9.182;2022-08-19T10:26:16;22.30;99.90
18147;DHT22;9199;48.832;9.182;2022-08-19T10:28:43;22.40;99.90
18147;DHT22;9199;48.832;9.182;2022-08-19T10:31:12;22.50;99.90
18147;DHT22;9199;48.832;9.182;2022-08-19T10:33:41;22.70;99.90
18147;DHT22;9199;48.832;9.182;2022-08-19T10:36:12;22.80;99.90
18147;DHT22;9199;48.832;9.182;2022-08-19T10:38:41;23.10;99.90
18147;DHT22;9199;48.832;9.182;2022-08-19T10:41:09;23.20;99.90
18147;DHT22;9199;48.832;9.182;2022-08-19T10:43:36;23.30;99.90
18147;DHT22;9199;48.832;9.182;2022-08-19T10:46:05;23.50;99.90
18147;DHT22;9199;48.832;9.182;2022-08-19T10:48:32;23.60;99.90
18147;DHT22;9199;48.832;9.182;2022-08-19T10:51:01;23.60;99.90
18147;DHT22;9199;48.832;9.182;2022-08-19T10:53:45;23.60;99.90
18147;DHT22;9199;48.832;9.182;2022-08-19T10:56:12;23.40;99.90
18147;DHT22;9199;48.832;9.182;2022-08-19T10:58:57;23.40;99.90
18147;DHT22;9199;48.832;9.182;2022-08-19T11:01:24;23.30;99.90
18147;DHT22;9199;48.832;9.182;2022-08-19T11:03:51;23.20;99.90
18147;DHT22;9199;48.832;9.182;2022-08-19T11:06:19;23.30;99.90
18147;DHT22;9199;48.832;9.182;2022-08-19T11:08:46;23.20;99.90
18147;DHT22;9199;48.832;9.182;2022-08-19T11:11:13;23.40;99.90
18147;DHT22;9199;48.832;9.182;2022-08-19T11:13:41;23.60;99.90
18147;DHT22;9199;48.832;9.182;2022-08-19T11:16:15;23.90;99.90
18147;DHT22;9199;48.832;9.182;2022-08-19T11:18:46;24.20;99.90
18147;DHT22;9199;48.832;9.182;2022-08-19T11:21:15;24.40;99.90
18147;DHT22;9199;48.832;9.182;2022-08-19T11:23:46;24.40;99.90
18147;DHT22;9199;48.832;9.182;2022-08-19T11:26:14;24.30;99.90
18147;DHT22;9199;48.832;9.182;2022-08-19T11:28:41;24.30;99.90
18147;DHT22;9199;48.832;9.182;2022-08-19T11:31:11;24.30;99.90
18147;DHT22;9199;48.832;9.182;2022-08-19T11:33:38;24.30;99.90
18147;DHT22;9199;48.832;9.182;2022-08-19T11:36:05;24.30;99.90
18147;DHT22;9199;48.832;9.182;2022-08-19T11:38:32;24.50;99.90
18147;DHT22;9199;48.832;9.182;2022-08-19T11:41:04;24.50;99.90
18147;DHT22;9199;48.832;9.182;2022-08-19T11:43:32;24.50;99.90
18147;DHT22;9199;48.832;9.182;2022-08-19T11:46:03;24.50;99.90
18147;DHT22;9199;48.832;9.182;2022-08-19T11:48:34;24.50;99.90
18147;DHT22;9199;48.832;9.182;2022-08-19T11:51:04;24.60;99.90
18147;DHT22;9199;48.832;9.182;2022-08-19T11:53:32;24.60;99.90
18147;DHT22;9199;48.832;9.182;2022-08-19T11:56:02;24.50;99.90
18147;DHT22;9199;48.832;9.182;2022-08-19T11:58:29;24.40;99.90
18147;DHT22;9199;48.832;9.182;2022-08-19T12:00:56;24.30;99.90
18147;DHT22;9199;48.832;9.182;2022-08-19T12:03:23;24.10;99.90
18147;DHT22;9199;48.832;9.182;2022-08-19T12:05:50;24.00;99.90
18147;DHT22;9199;48.832;9.182;2022-08-19T12:08:17;24.00;99.90
18147;DHT22;9199;48.832;9.182;2022-08-19T12:10:45;24.00;99.90
18147;DHT22;9199;48.832;9.182;2022-08-19T12:13:14;24.10;99.90
18147;DHT22;9199;48.832;9.182;2022-08-19T12:15:46;24.10;99.90
18147;DHT22;9199;48.832;9.182;2022-08-19T12:18:14;24.10;99.90
18147;DHT22;9199;48.832;9.182;2022-08-19T12:20:42;24.10;99.90
18147;DHT22;9199;48.832;9.182;2022-08-19T12:23:11;24.10;99.90
18147;DHT22;9199;48.832;9.182;2022-08-19T12:25:44;24.10;99.90
18147;DHT22;9199;48.832;9.182;2022-08-19T12:28:18;24.00;99.90
18147;DHT22;9199;48.832;9.182;2022-08-19T12:30:46;23.90;99.90
18147;DHT22;9199;48.832;9.182;2022-08-19T12:33:13;23.80;99.90
18147;DHT22;9199;48.832;9.182;2022-08-19T12:35:40;23.70;99.90
18147;DHT22;9199;48.832;9.182;2022-08-19T12:38:07;23.80;99.90
18147;DHT22;9199;48.832;9.182;2022-08-19T12:40:34;23.90;99.90
18147;DHT22;9199;48.832;9.182;2022-08-19T12:43:01;24.00;99.90
18147;DHT22;9199;48.832;9.182;2022-08-19T12:45:29;24.20;99.90
18147;DHT22;9199;48.832;9.182;2022-08-19T12:47:56;24.40;99.90
18147;DHT22;9199;48.832;9.182;2022-08-19T12:50:23;24.70;99.90
18147;DHT22;9199;48.832;9.182;2022-08-19T12:52:50;24.80;99.90
18147;DHT22;9199;48.832;9.182;2022-08-19T12:55:17;25.00;99.90
18147;DHT22;9199;48.832;9.182;2022-08-19T12:57:45;25.20;99.90
18147;DHT22;9199;48.832;9.182;2022-08-19T13:00:15;25.30;99.90
18147;DHT22;9199;48.832;9.182;2022-08-19T13:02:45;25.30;99.90
18147;DHT22;9199;48.832;9.182;2022-08-19T13:05:17;25.10;99.90
18147;DHT22;9199;48.832;9.182;2022-08-19T13:07:46;24.90;99.90
18147;DHT22;9199;48.832;9.182;2022-08-19T13:10:16;24.80;99.90
18147;DHT22;9199;48.832;9.182;2022-08-19T13:12:43;24.50;99.90
18147;DHT22;9199;48.832;9.182;2022-08-19T13:15:11;24.30;99.90
18147;DHT22;9199;48.832;9.182;2022-08-19T13:17:38;24.00;99.90
18147;DHT22;9199;48.832;9.182;2022-08-19T13:20:08;23.70;99.90
18147;DHT22;9199;48.832;9.182;2022-08-19T13:22:36;23.50;99.90
18147;DHT22;9199;48.832;9.182;2022-08-19T13:25:05;23.40;99.90
18147;DHT22;9199;48.832;9.182;2022-08-19T13:27:32;23.20;99.90
18147;DHT22;9199;48.832;9.182;2022-08-19T13:29:59;23.20;99.90
18147;DHT22;9199;48.832;9.182;2022-08-19T13:32:43;23.10;99.90
18147;DHT22;9199;48.832;9.182;2022-08-19T13:35:29;23.00;99.90
18147;DHT22;9199;48.832;9.182;2022-08-19T13:37:56;22.90;99.90
18147;DHT22;9199;48.832;9.182;2022-08-19T13:40:24;22.70;99.90
18147;DHT22;9199;48.832;9.182;2022-08-19T13:42:54;22.50;99.90
18147;DHT22;9199;48.832;9.182;2022-08-19T13:45:24;22.40;99.90
18147;DHT22;9199;48.832;9.182;2022-08-19T13:47:52;22.20;99.90
18147;DHT22;9199;48.832;9.182;2022-08-19T13:50:23;21.80;99.90
18147;DHT22;9199;48.832;9.182;2022-08-19T13:52:53;21.30;99.90
18147;DHT22;9199;48.832;9.182;2022-08-19T13:55:21;20.90;99.90
18147;DHT22;9199;48.832;9.182;2022-08-19T13:57:50;20.70;99.90
18147;DHT22;9199;48.832;9.182;2022-08-19T14:00:19;20.50;99.90
18147;DHT22;9199;48.832;9.182;2022-08-19T14:02:49;20.40;99.90
18147;DHT22;9199;48.832;9.182;2022-08-19T14:05:18;20.30;99.90
18147;DHT22;9199;48.832;9.182;2022-08-19T14:07:45;20.10;99.90
18147;DHT22;9199;48.832;9.182;2022-08-19T14:10:14;20.10;99.90
18147;DHT22;9199;48.832;9.182;2022-08-19T14:12:41;20.00;99.90
18147;DHT22;9199;48.832;9.182;2022-08-19T14:15:10;20.00;99.90
18147;DHT22;9199;48.832;9.182;2022-08-19T14:17:38;20.00;99.90
18147;DHT22;9199;48.832;9.182;2022-08-19T14:20:08;20.10;99.90
18147;DHT22;9199;48.832;9.182;2022-08-19T14:22:35;20.10;99.90
18147;DHT22;9199;48.832;9.182;2022-08-19T14:25:03;20.20;99.90
18147;DHT22;9199;48.832;9.182;2022-08-19T14:27:32;20.40;99.90
18147;DHT22;9199;48.832;9.182;2022-08-19T14:29:59;20.50;99.90
18147;DHT22;9199;48.832;9.182;2022-08-19T14:32:26;20.70;99.90
18147;DHT22;9199;48.832;9.182;2022-08-19T14:34:53;20.80;99.90
18147;DHT22;9199;48.832;9.182;2022-08-19T14:37:22;21.10;99.90
18147;DHT22;9199;48.832;9.182;2022-08-19T14:39:48;21.40;99.90
18147;DHT22;9199;48.832;9.182;2022-08-19T14:42:15;21.50;99.90
18147;DHT22;9199;48.832;9.182;2022-08-19T14:44:43;21.60;99.90
18147;DHT22;9199;48.832;9.182;2022-08-19T14:47:10;21.70;99.90
18147;DHT22;9199;48.832;9.182;2022-08-19T14:49:37;21.70;99.90
18147;DHT22;9199;48.832;9.182;2022-08-19T14:52:05;21.70;99.90
18147;DHT22;9199;48.832;9.182;2022-08-19T14:54:32;21.60;99.90
18147;DHT22;9199;48.832;9.182;2022-08-19T14:56:59;21.60;99.90
18147;DHT22;9199;48.832;9.182;2022-08-19T14:59:26;21.60;99.90
18147;DHT22;9199;48.832;9.182;2022-08-19T15:01:54;21.70;99.90
18147;DHT22;9199;48.832;9.182;2022-08-19T15:04:21;21.90;99.90
18147;DHT22;9199;48.832;9.182;2022-08-19T15:06:48;22.20;99.90
18147;DHT22;9199;48.832;9.182;2022-08-19T15:09:16;22.50;99.90
18147;DHT22;9199;48.832;9.182;2022-08-19T15:11:43;22.80;99.90
18147;DHT22;9199;48.832;9.182;2022-08-19T15:14:10;23.10;99.90
18147;DHT22;9199;48.832;9.182;2022-08-19T15:16:37;23.30;99.90
18147;DHT22;9199;48.832;9.182;2022-08-19T15:19:08;23.50;99.90
18147;DHT22;9199;48.832;9.182;2022-08-19T15:21:35;23.70;99.90
18147;DHT22;9199;48.832;9.182;2022-08-19T15:24:03;23.70;99.90
18147;DHT22;9199;48.832;9.182;2022-08-19T15:26:30;23.80;99.90
18147;DHT22;9199;48.832;9.182;2022-08-19T15:28:58;23.90;99.90
18147;DHT22;9199;48.832;9.182;2022-08-19T15:31:25;23.90;99.90
18147;DHT22;9199;48.832;9.182;2022-08-19T15:33:53;23.80;99.90
18147;DHT22;9199;48.832;9.182;2022-08-19T15:36:24;23.70;99.90
18147;DHT22;9199;48.832;9.182;2022-08-19T15:38:51;23.60;99.90
18147;DHT22;9199;48.832;9.182;2022-08-19T15:41:20;23.50;99.90
18147;DHT22;9199;48.832;9.182;2022-08-19T15:43:52;23.70;99.90
18147;DHT22;9199;48.832;9.182;2022-08-19T15:46:21;24.00;99.90
18147;DHT22;9199;48.832;9.182;2022-08-19T15:48:50;24.30;99.90
18147;DHT22;9199;48.832;9.182;2022-08-19T15:51:18;24.50;99.90
18147;DHT22;9199;48.832;9.182;2022-08-19T15:53:46;24.50;99.90